createdAt,value
2022-09-14T00:00:24.943Z,4.63
2022-09-14T00:02:54.927Z,4.85
2022-09-14T00:07:54.230Z,4.28
2022-09-14T00:10:24.995Z,4.28
2022-09-14T00:12:55.383Z,4.05
2022-09-14T00:15:25.709Z,4.38
2022-09-14T00:17:55.553Z,5.38
2022-09-14T00:20:25.410Z,5.60
2022-09-14T00:22:55.283Z,4.70
2022-09-14T00:25:25.170Z,4.53
2022-09-14T00:27:56.495Z,4.15
2022-09-14T00:30:26.698Z,4.55
2022-09-14T00:32:56.724Z,5.18
2022-09-14T00:37:56.013Z,4.93
2022-09-14T00:42:55.215Z,4.77
2022-09-14T00:45:27.583Z,4.95
2022-09-14T00:47:58.437Z,4.90
2022-09-14T00:50:28.392Z,5.38
2022-09-14T00:52:58.561Z,6.07
2022-09-14T00:55:28.798Z,5.85
2022-09-14T00:57:58.797Z,7.32
2022-09-14T01:02:59.615Z,6.00
2022-09-14T01:05:42.822Z,7.07
2022-09-14T01:08:35.273Z,7.57
2022-09-14T01:11:33.151Z,5.60
2022-09-14T01:14:22.668Z,5.97
2022-09-14T01:17:17.387Z,5.03
2022-09-14T01:20:16.708Z,5.45
2022-09-14T01:23:00.475Z,6.63
2022-09-14T01:26:08.596Z,6.45
2022-09-14T01:29:09.861Z,5.55
2022-09-14T01:32:03.099Z,6.53
2022-09-14T01:34:42.730Z,7.00
2022-09-14T01:37:35.545Z,7.72
2022-09-14T01:40:20.195Z,7.15
2022-09-14T01:42:57.296Z,7.07
2022-09-14T01:45:30.561Z,9.02
2022-09-14T01:48:04.976Z,7.30
2022-09-14T01:50:46.949Z,9.07
2022-09-14T01:53:41.711Z,7.40
2022-09-14T01:56:23.870Z,7.85
2022-09-14T01:59:02.258Z,7.60
2022-09-14T02:01:45.521Z,7.32
2022-09-14T02:04:24.957Z,7.72
2022-09-14T02:06:54.957Z,7.45
2022-09-14T02:09:28.430Z,7.07
2022-09-14T02:12:02.552Z,8.35
2022-09-14T02:14:33.549Z,9.48
2022-09-14T02:17:04.443Z,9.02
2022-09-14T02:19:39.559Z,7.90
2022-09-14T02:22:09.511Z,9.15
2022-09-14T02:24:39.660Z,7.57
2022-09-14T02:27:10.306Z,7.88
2022-09-14T02:29:40.533Z,7.53
2022-09-14T02:32:46.117Z,7.82
2022-09-14T02:35:40.232Z,8.65
2022-09-14T02:38:39.440Z,8.57
2022-09-14T02:41:38.944Z,8.27
2022-09-14T02:44:37.343Z,8.95
2022-09-14T02:47:27.547Z,9.52
2022-09-14T02:50:20.012Z,8.27
2022-09-14T02:53:16.023Z,9.48
2022-09-14T02:55:53.485Z,7.90
2022-09-14T02:58:23.504Z,9.77
2022-09-14T03:00:53.611Z,8.30
2022-09-14T03:03:24.368Z,8.00
2022-09-14T03:05:54.468Z,9.32
2022-09-14T03:08:24.523Z,8.95
2022-09-14T03:10:54.439Z,8.88
2022-09-14T03:13:24.637Z,8.38
2022-09-14T03:15:55.281Z,9.85
2022-09-14T03:18:25.313Z,10.10
2022-09-14T03:20:55.149Z,11.38
2022-09-14T03:25:54.585Z,9.77
2022-09-14T03:28:24.417Z,10.30
2022-09-14T03:30:54.598Z,9.18
2022-09-14T03:33:24.463Z,10.07
2022-09-14T03:35:54.267Z,11.27
2022-09-14T03:38:24.275Z,8.70
2022-09-14T03:40:54.782Z,7.60
2022-09-14T03:43:25.564Z,6.05
2022-09-14T03:45:55.791Z,6.40
2022-09-14T03:48:25.887Z,7.65
2022-09-14T03:50:55.773Z,6.80
2022-09-14T03:53:25.601Z,6.47
2022-09-14T03:55:55.546Z,5.78
2022-09-14T03:58:25.882Z,4.82
2022-09-14T04:00:55.848Z,4.63
2022-09-14T04:03:25.839Z,3.95
2022-09-14T04:05:59.195Z,3.50
2022-09-14T04:08:29.379Z,4.88
2022-09-14T04:10:59.235Z,5.22
2022-09-14T04:13:29.261Z,5.00
2022-09-14T04:16:01.743Z,5.35
2022-09-14T04:18:31.753Z,5.03
2022-09-14T04:21:08.239Z,4.68
2022-09-14T04:23:56.967Z,4.95
2022-09-14T04:26:31.680Z,5.05
2022-09-14T04:29:04.734Z,4.68
2022-09-14T04:31:35.531Z,6.03
2022-09-14T04:34:05.797Z,5.55
2022-09-14T04:36:35.853Z,5.68
2022-09-14T04:39:08.714Z,6.03
2022-09-14T04:41:38.870Z,4.35
2022-09-14T04:44:08.852Z,3.72
2022-09-14T04:46:46.116Z,4.80
2022-09-14T04:49:20.460Z,4.35
2022-09-14T04:51:50.712Z,4.72
2022-09-14T04:54:21.454Z,3.45
2022-09-14T04:56:51.647Z,4.18
2022-09-14T04:59:21.617Z,5.47
2022-09-14T05:01:52.031Z,4.45
2022-09-14T05:04:22.059Z,4.55
2022-09-14T05:06:52.871Z,5.35
2022-09-14T05:09:23.330Z,3.95
2022-09-14T05:11:53.513Z,6.03
2022-09-14T05:14:23.430Z,6.43
2022-09-14T05:16:53.558Z,6.78
2022-09-14T05:19:23.422Z,6.85
2022-09-14T05:21:53.300Z,6.43
2022-09-14T05:24:23.732Z,5.95
2022-09-14T05:26:59.565Z,5.25
2022-09-14T05:29:31.621Z,4.15
2022-09-14T05:32:02.836Z,3.22
2022-09-14T05:34:32.799Z,3.75
2022-09-14T05:37:02.717Z,3.40
2022-09-14T05:39:33.033Z,2.58
2022-09-14T05:42:02.912Z,3.20
2022-09-14T05:44:32.817Z,2.03
2022-09-14T05:47:02.707Z,2.67
2022-09-14T05:49:33.346Z,2.63
2022-09-14T05:52:03.588Z,2.15
2022-09-14T05:54:33.448Z,2.00
2022-09-14T05:57:03.366Z,2.92
2022-09-14T05:59:33.368Z,2.28
2022-09-14T06:02:03.572Z,2.03
2022-09-14T06:04:34.676Z,1.80
2022-09-14T06:07:18.031Z,1.65
2022-09-14T06:09:48.907Z,1.55
2022-09-14T06:12:18.778Z,1.42
2022-09-14T06:14:49.102Z,1.98
2022-09-14T06:17:19.711Z,1.65
2022-09-14T06:19:49.775Z,2.28
2022-09-14T06:22:19.520Z,1.27
2022-09-14T06:24:49.368Z,1.52
2022-09-14T06:27:19.336Z,1.30
2022-09-14T06:29:53.667Z,1.63
2022-09-14T06:32:25.067Z,1.90
2022-09-14T06:34:54.867Z,2.85
2022-09-14T06:37:24.691Z,1.90
2022-09-14T06:39:54.595Z,1.38
2022-09-14T06:42:24.447Z,2.08
2022-09-14T06:44:54.283Z,2.70
2022-09-14T06:47:25.524Z,2.50
2022-09-14T06:49:55.492Z,3.90
2022-09-14T06:52:25.320Z,4.38
2022-09-14T06:54:55.154Z,3.33
2022-09-14T06:57:25.375Z,2.40
2022-09-14T06:59:55.246Z,2.03
2022-09-14T07:02:25.276Z,2.50
2022-09-14T07:04:55.226Z,4.80
2022-09-14T07:07:25.108Z,4.97
2022-09-14T07:09:55.175Z,4.00
2022-09-14T07:12:25.050Z,2.92
2022-09-14T07:14:54.955Z,2.35
2022-09-14T07:17:25.147Z,1.98
2022-09-14T07:19:55.019Z,1.60
2022-09-14T07:22:24.985Z,2.55
2022-09-14T07:24:55.669Z,3.78
2022-09-14T07:27:25.450Z,4.90
2022-09-14T07:29:55.820Z,4.95
2022-09-14T07:32:25.678Z,4.10
2022-09-14T07:34:55.567Z,3.38
2022-09-14T07:37:25.992Z,2.80
2022-09-14T07:39:56.117Z,3.33
2022-09-14T07:42:26.035Z,1.98
2022-09-14T07:44:55.902Z,2.35
2022-09-14T07:47:25.746Z,2.65
2022-09-14T07:49:55.839Z,3.10
2022-09-14T07:52:25.860Z,2.15
2022-09-14T07:54:55.710Z,2.40
2022-09-14T07:57:45.520Z,1.85
2022-09-14T08:00:19.941Z,1.95
2022-09-14T08:02:54.808Z,1.85
2022-09-14T08:05:25.773Z,1.45
2022-09-14T08:07:57.715Z,1.70
2022-09-14T08:10:28.475Z,0.80
2022-09-14T08:12:58.837Z,1.02
2022-09-14T08:15:30.294Z,0.77
2022-09-14T08:18:03.218Z,1.65
2022-09-14T08:20:34.031Z,1.02
2022-09-14T08:23:04.222Z,0.75
2022-09-14T08:25:37.677Z,1.55
2022-09-14T08:28:07.863Z,1.17
2022-09-14T08:30:37.880Z,0.82
2022-09-14T08:33:31.596Z,2.63
2022-09-14T08:36:29.783Z,2.85
2022-09-14T08:39:24.090Z,1.35
2022-09-14T08:42:03.675Z,1.23
2022-09-14T08:44:42.524Z,0.85
2022-09-14T08:47:56.394Z,0.95
2022-09-14T08:50:27.152Z,0.90
2022-09-14T08:52:58.198Z,1.00
2022-09-14T08:55:50.885Z,1.80
2022-09-14T08:58:41.433Z,0.80
2022-09-14T09:01:37.988Z,0.73
2022-09-14T09:04:39.250Z,0.55
2022-09-14T09:07:25.924Z,1.15
2022-09-14T09:09:58.698Z,0.80
2022-09-14T09:12:41.715Z,0.98
2022-09-14T09:15:38.757Z,0.80
2022-09-14T09:18:39.262Z,1.20
2022-09-14T09:21:15.958Z,1.60
2022-09-14T09:23:46.573Z,1.45
2022-09-14T09:26:58.872Z,2.03
2022-09-14T09:29:45.490Z,1.45
2022-09-14T09:35:33.564Z,5.35
2022-09-14T09:38:04.306Z,3.95
2022-09-14T09:40:41.309Z,3.22
2022-09-14T09:43:45.313Z,2.35
2022-09-14T09:46:14.248Z,2.58
2022-09-14T09:48:47.196Z,1.42
2022-09-14T09:51:28.747Z,2.13
2022-09-14T09:54:12.369Z,2.00
2022-09-14T09:56:53.863Z,1.45
2022-09-14T09:59:39.110Z,2.35
2022-09-14T10:02:30.935Z,1.92
2022-09-14T10:05:30.689Z,1.13
2022-09-14T10:08:08.033Z,1.30
2022-09-14T10:10:46.935Z,1.17
2022-09-14T10:13:43.159Z,1.30
2022-09-14T10:16:40.669Z,1.35
2022-09-14T10:19:27.629Z,1.13
2022-09-14T10:22:24.262Z,1.10
2022-09-14T10:25:29.866Z,1.40
2022-09-14T10:28:24.439Z,1.70
2022-09-14T10:31:17.504Z,1.90
2022-09-14T10:33:55.986Z,2.33
2022-09-14T10:36:52.042Z,2.30
2022-09-14T10:39:52.970Z,1.73
2022-09-14T10:42:44.894Z,2.30
2022-09-14T10:45:40.790Z,1.52
2022-09-14T10:48:45.272Z,2.05
2022-09-14T10:51:47.845Z,1.60
2022-09-14T10:54:49.540Z,1.50
2022-09-14T10:57:49.575Z,2.30
2022-09-14T11:00:22.607Z,2.33
2022-09-14T11:03:25.722Z,1.92
2022-09-14T11:06:13.880Z,1.95
2022-09-14T11:08:50.643Z,2.03
2022-09-14T11:11:40.973Z,1.88
2022-09-14T11:14:37.605Z,2.20
2022-09-14T11:17:31.354Z,1.50
2022-09-14T11:20:32.433Z,1.38
2022-09-14T11:23:34.492Z,1.63
2022-09-14T11:26:25.257Z,2.70
2022-09-14T11:29:03.086Z,3.05
2022-09-14T11:31:59.011Z,3.78
2022-09-14T11:34:44.412Z,4.88
2022-09-14T11:37:19.861Z,4.47
2022-09-14T11:40:12.096Z,4.57
2022-09-14T11:43:04.353Z,5.00
2022-09-14T11:45:52.658Z,4.95
2022-09-14T11:48:44.947Z,3.80
2022-09-14T11:51:26.680Z,6.18
2022-09-14T11:53:56.809Z,5.38
2022-09-14T11:56:30.800Z,5.00
2022-09-14T11:59:05.937Z,5.85
2022-09-14T12:01:40.099Z,5.50
2022-09-14T12:04:18.853Z,4.90
2022-09-14T12:06:52.484Z,4.75
2022-09-14T12:09:42.292Z,3.80
2022-09-14T12:15:04.502Z,3.83
2022-09-14T12:17:40.758Z,6.63
2022-09-14T12:20:45.293Z,5.07
2022-09-14T12:23:33.946Z,4.03
2022-09-14T12:26:30.451Z,3.83
2022-09-14T12:29:07.681Z,4.15
2022-09-14T12:32:04.682Z,4.75
2022-09-14T12:34:36.132Z,5.32
2022-09-14T12:37:27.863Z,5.22
2022-09-14T12:40:31.216Z,6.82
2022-09-14T12:43:31.241Z,8.13
2022-09-14T12:46:31.791Z,8.77
2022-09-14T12:49:17.400Z,7.53
2022-09-14T12:51:51.624Z,7.78
2022-09-14T12:54:42.638Z,8.35
2022-09-14T12:57:37.563Z,7.63
2022-09-14T13:00:19.031Z,8.75
2022-09-14T13:03:22.019Z,8.48
2022-09-14T13:05:53.202Z,7.68
2022-09-14T13:08:26.400Z,6.88
2022-09-14T13:10:56.620Z,8.57
2022-09-14T13:13:33.271Z,5.80
2022-09-14T13:16:06.882Z,5.55
2022-09-14T13:18:40.010Z,6.03
2022-09-14T13:21:26.818Z,7.43
2022-09-14T13:23:56.707Z,7.25
2022-09-14T13:29:00.848Z,8.05
2022-09-14T13:31:37.780Z,9.15
2022-09-14T13:34:08.574Z,8.45
2022-09-14T13:36:45.321Z,7.35
2022-09-14T13:39:29.309Z,6.05
2022-09-14T13:42:00.721Z,6.45
2022-09-14T13:44:35.682Z,8.30
2022-09-14T13:47:07.970Z,6.28
2022-09-14T13:49:38.610Z,6.47
2022-09-14T13:52:49.800Z,6.18
2022-09-14T13:55:29.397Z,4.90
2022-09-14T13:58:16.593Z,5.70
2022-09-14T14:01:03.799Z,5.53
2022-09-14T14:03:51.069Z,5.35
2022-09-14T14:06:33.426Z,5.63
2022-09-14T14:09:07.630Z,5.70
2022-09-14T14:11:57.398Z,4.18
2022-09-14T14:14:32.466Z,3.20
2022-09-14T14:17:24.376Z,2.20
2022-09-14T14:19:57.966Z,2.17
2022-09-14T14:22:34.861Z,2.15
2022-09-14T14:25:21.836Z,4.05
2022-09-14T14:27:51.884Z,1.40
2022-09-14T14:30:25.062Z,3.50
2022-09-14T14:32:56.421Z,3.03
2022-09-14T14:35:29.334Z,2.80
2022-09-14T14:38:00.667Z,1.65
2022-09-14T14:40:30.993Z,1.88
2022-09-14T14:43:04.493Z,1.25
2022-09-14T14:45:36.584Z,2.47
2022-09-14T14:48:07.368Z,1.90
2022-09-14T14:50:37.950Z,1.45
2022-09-14T14:53:08.308Z,1.17
2022-09-14T14:55:39.463Z,1.40
2022-09-14T14:58:15.591Z,1.27
2022-09-14T15:00:46.462Z,1.30
2022-09-14T15:03:17.150Z,1.30
2022-09-14T15:05:48.865Z,0.95
2022-09-14T15:08:21.757Z,1.50
2022-09-14T15:10:57.524Z,1.42
2022-09-14T15:13:27.579Z,0.52
2022-09-14T15:15:58.619Z,1.15
2022-09-14T15:18:28.547Z,0.68
2022-09-14T15:23:27.881Z,1.10
2022-09-14T15:28:27.257Z,0.85
2022-09-14T15:30:59.052Z,1.02
2022-09-14T15:33:29.042Z,1.42
2022-09-14T15:38:29.216Z,1.60
2022-09-14T15:40:59.159Z,2.28
2022-09-14T15:46:04.209Z,2.20
2022-09-14T15:48:34.200Z,2.22
2022-09-14T15:51:12.476Z,2.53
2022-09-14T15:53:42.585Z,1.35
2022-09-14T15:56:14.256Z,1.95
2022-09-14T15:58:47.909Z,1.67
2022-09-14T16:01:20.138Z,1.50
2022-09-14T16:03:50.169Z,1.55
2022-09-14T16:08:49.412Z,2.03
2022-09-14T16:13:50.172Z,2.03
2022-09-14T16:16:21.669Z,1.25
2022-09-14T16:18:52.843Z,0.95
2022-09-14T16:21:26.365Z,1.23
2022-09-14T16:23:58.717Z,1.38
2022-09-14T16:26:32.193Z,1.17
2022-09-14T16:29:02.618Z,1.23
2022-09-14T16:31:35.545Z,1.92
2022-09-14T16:34:10.921Z,1.00
2022-09-14T16:36:42.766Z,2.38
2022-09-14T16:39:15.505Z,2.17
2022-09-14T16:41:45.811Z,1.73
2022-09-14T16:44:20.388Z,2.17
2022-09-14T16:46:50.820Z,1.55
2022-09-14T16:49:28.637Z,1.35
2022-09-14T16:52:02.175Z,1.48
2022-09-14T16:54:33.460Z,1.63
2022-09-14T16:57:03.431Z,1.40
2022-09-14T17:02:02.951Z,1.35
2022-09-14T17:04:32.938Z,1.90
2022-09-14T17:09:35.398Z,1.80
2022-09-14T17:12:05.721Z,1.60
2022-09-14T17:14:37.310Z,1.85
2022-09-14T17:17:07.167Z,1.88
2022-09-14T17:19:39.506Z,1.52
2022-09-14T17:22:13.040Z,1.63
2022-09-14T17:24:43.102Z,1.45
2022-09-14T17:29:42.602Z,1.73
2022-09-14T17:32:14.915Z,2.40
2022-09-14T17:34:45.031Z,1.40
2022-09-14T17:37:14.913Z,1.63
2022-09-14T17:39:44.903Z,1.88
2022-09-14T17:44:44.671Z,2.47
2022-09-14T17:47:14.648Z,1.98
2022-09-14T17:52:13.901Z,1.63
2022-09-14T17:54:46.824Z,2.50
2022-09-14T17:57:16.765Z,1.63
2022-09-14T17:59:47.271Z,2.28
2022-09-14T18:02:17.255Z,1.48
2022-09-14T18:07:18.691Z,2.30
2022-09-14T18:12:19.416Z,1.93
2022-09-14T18:14:49.686Z,2.95
2022-09-14T18:17:19.630Z,2.45
2022-09-14T18:22:19.542Z,1.95
2022-09-14T18:24:49.351Z,1.50
2022-09-14T18:27:19.435Z,2.00
2022-09-14T18:29:49.385Z,1.80
2022-09-14T18:34:48.519Z,1.83
2022-09-14T18:37:18.415Z,2.15
2022-09-14T18:39:48.453Z,1.60
2022-09-14T18:44:47.768Z,2.10
2022-09-14T18:47:23.259Z,2.80
2022-09-14T18:49:53.302Z,1.95
2022-09-14T18:54:52.557Z,2.00
2022-09-14T18:59:51.915Z,2.25
2022-09-14T19:04:51.467Z,2.72
2022-09-14T19:07:21.484Z,2.38
2022-09-14T19:12:20.744Z,3.07
2022-09-14T19:14:50.642Z,2.92
2022-09-14T19:17:20.992Z,3.50
2022-09-14T19:19:50.942Z,3.40
2022-09-14T19:22:20.864Z,3.17
2022-09-14T19:24:50.780Z,3.20
2022-09-14T19:27:20.644Z,3.08
2022-09-14T19:29:50.921Z,2.75
2022-09-14T19:32:21.090Z,2.63
2022-09-14T19:34:51.259Z,2.95
2022-09-14T19:37:21.154Z,3.42
2022-09-14T19:39:51.382Z,3.58
2022-09-14T19:42:24.297Z,2.88
2022-09-14T19:44:54.631Z,3.20
2022-09-14T19:47:24.765Z,3.60
2022-09-14T19:52:23.970Z,3.80
2022-09-14T19:54:53.897Z,3.67
2022-09-14T19:57:23.742Z,2.78
2022-09-14T19:59:53.733Z,3.85
2022-09-14T20:04:53.229Z,4.13
2022-09-14T20:07:23.295Z,3.85
2022-09-14T20:12:22.426Z,4.75
2022-09-14T20:14:52.393Z,4.15
2022-09-14T20:17:23.681Z,3.78
2022-09-14T20:19:53.660Z,5.00
2022-09-14T20:24:52.838Z,4.30
2022-09-14T20:27:22.879Z,3.33
2022-09-14T20:34:52.528Z,3.67
2022-09-14T20:37:22.511Z,3.70
2022-09-14T20:42:22.234Z,3.97
2022-09-14T20:44:52.143Z,4.28
2022-09-14T20:47:22.427Z,4.43
2022-09-14T20:49:52.400Z,3.63
2022-09-14T20:54:52.265Z,4.07
2022-09-14T20:59:51.550Z,4.30
2022-09-14T21:02:21.465Z,3.70
2022-09-14T21:04:51.538Z,3.50
2022-09-14T21:09:51.068Z,3.60
2022-09-14T21:12:21.086Z,4.13
2022-09-14T21:17:20.617Z,3.88
2022-09-14T21:19:50.798Z,3.30
2022-09-14T21:22:21.049Z,2.92
2022-09-14T21:24:50.971Z,2.50
2022-09-14T21:27:20.912Z,3.17
2022-09-14T21:29:52.799Z,3.00
2022-09-14T21:32:22.798Z,2.92
2022-09-14T21:37:22.129Z,2.53
2022-09-14T21:39:52.320Z,2.75
2022-09-14T21:42:22.210Z,1.77
2022-09-14T21:44:52.237Z,2.78
2022-09-14T21:49:52.323Z,3.42
2022-09-14T21:52:22.331Z,3.28
2022-09-14T21:57:21.522Z,3.07
2022-09-14T21:59:51.360Z,2.97
2022-09-14T22:02:21.259Z,2.42
2022-09-14T22:04:51.306Z,3.30
2022-09-14T22:09:50.768Z,3.57
2022-09-14T22:14:54.246Z,4.03
2022-09-14T22:17:24.144Z,3.53
2022-09-14T22:19:56.666Z,3.97
2022-09-14T22:22:26.482Z,5.18
2022-09-14T22:24:56.670Z,3.80
2022-09-14T22:27:26.658Z,5.00
2022-09-14T22:32:26.067Z,5.67
2022-09-14T22:37:25.213Z,4.63
2022-09-14T22:39:55.558Z,5.68
2022-09-14T22:42:25.783Z,5.88
2022-09-14T22:44:55.938Z,5.32
2022-09-14T22:47:26.043Z,5.28
2022-09-14T22:50:02.771Z,5.20
2022-09-14T22:52:32.682Z,4.65
2022-09-14T22:55:02.780Z,5.35
2022-09-14T23:00:01.815Z,5.30
2022-09-14T23:02:31.931Z,6.47
2022-09-14T23:05:01.909Z,5.20
2022-09-14T23:07:33.730Z,4.43
2022-09-14T23:10:03.685Z,5.40
2022-09-14T23:12:33.553Z,4.07
2022-09-14T23:15:03.500Z,4.63
2022-09-14T23:17:33.941Z,5.10
2022-09-14T23:20:04.501Z,5.35
2022-09-14T23:22:34.623Z,5.80
2022-09-14T23:25:04.970Z,4.78
2022-09-14T23:27:34.975Z,5.40
2022-09-14T23:32:34.518Z,4.10
2022-09-14T23:35:04.556Z,4.15
2022-09-14T23:40:04.064Z,4.33
2022-09-14T23:42:34.112Z,5.72
2022-09-14T23:47:33.504Z,5.20
2022-09-14T23:52:33.536Z,5.90
2022-09-14T23:55:03.595Z,5.32
